Time;durP1;ratioP1;P1;durP2;ratioP2;P2;SDS_P1;SDS_P2;PMS_P1;PMS_P2;Temp;Humidity;BMP_temperature;BMP_pressure;BME280_temperature;BME280_humidity;BME280_pressure;Samples;Min_cycle;Max_cycle;Signal;HPM_P1;HPM_P2
2022/05/09 00:01:30;;;;;;;7.83;3.80;;;15.30;80.40;;;;;;5051201;28;20549;-65
2022/05/09 00:03:58;;;;;;;5.93;3.13;;;15.30;80.50;;;;;;5050741;28;20987;-63
2022/05/09 00:06:26;;;;;;;9.20;4.37;;;15.20;81.70;;;;;;5050904;28;21028;-62
2022/05/09 00:08:53;;;;;;;7.03;4.20;;;15.20;82.70;;;;;;5051234;28;20454;-63
2022/05/09 00:11:20;;;;;;;6.73;3.33;;;15.20;83.70;;;;;;5051316;28;20531;-62
2022/05/09 00:13:48;;;;;;;6.93;3.80;;;15.00;82.50;;;;;;5051193;28;20492;-64
2022/05/09 00:16:15;;;;;;;7.30;3.77;;;14.90;82.50;;;;;;5049338;28;20457;-64
2022/05/09 00:18:42;;;;;;;6.80;3.87;;;15.00;82.80;;;;;;5031033;28;20454;-63
2022/05/09 00:21:09;;;;;;;7.97;3.80;;;14.90;82.40;;;;;;5030774;28;20486;-62
2022/05/09 00:23:38;;;;;;;7.00;3.77;;;14.80;83.10;;;;;;5031275;28;20450;-64
2022/05/09 00:26:05;;;;;;;6.90;3.63;;;14.70;82.50;;;;;;5049553;28;21018;-62
2022/05/09 00:28:34;;;;;;;12.40;3.60;;;14.70;82.70;;;;;;5050512;28;20472;-62
2022/05/09 00:31:01;;;;;;;4.90;2.83;;;14.70;83.60;;;;;;5050938;28;20469;-62
2022/05/09 00:33:28;;;;;;;6.00;3.30;;;14.60;84.70;;;;;;5050496;28;20490;-62
2022/05/09 00:35:55;;;;;;;9.13;3.43;;;14.70;85.10;;;;;;5050546;28;20450;-64
2022/05/09 00:38:22;;;;;;;6.13;3.60;;;14.80;85.80;;;;;;5050641;28;20450;-63
2022/05/09 00:43:37;;;;;;;7.30;3.27;;;14.80;85.60;;;;;;5050753;28;20864;-63
2022/05/09 00:46:04;;;;;;;6.23;4.03;;;14.70;85.70;;;;;;5050577;28;20438;-61
2022/05/09 00:48:31;;;;;;;7.03;4.23;;;14.70;86.60;;;;;;5050454;28;20504;-62
2022/05/09 00:51:00;;;;;;;6.70;4.17;;;14.70;86.90;;;;;;5050190;28;20484;-60
2022/05/09 00:53:29;;;;;;;6.93;3.93;;;14.70;87.50;;;;;;5050364;28;21224;-61
2022/05/09 00:56:02;;;;;;;6.93;3.90;;;14.80;88.10;;;;;;5049927;28;20457;-62
2022/05/09 00:58:38;;;;;;;6.70;4.13;;;14.80;88.00;;;;;;5049619;28;20540;-64
2022/05/09 01:01:05;;;;;;;6.37;4.67;;;14.80;87.80;;;;;;5050334;28;20541;-62
2022/05/09 01:03:40;;;;;;;6.70;4.40;;;14.70;88.10;;;;;;5050509;28;20454;-65
2022/05/09 01:06:07;;;;;;;6.20;4.43;;;14.50;87.60;;;;;;5050050;28;20453;-65
2022/05/09 01:08:35;;;;;;;5.47;4.17;;;14.20;88.70;;;;;;5049848;28;20520;-63
2022/05/09 01:11:06;;;;;;;9.23;4.43;;;14.00;90.00;;;;;;5049808;28;20469;-64
2022/05/09 01:13:37;;;;;;;8.30;5.33;;;13.90;90.80;;;;;;5049607;28;20486;-62
2022/05/09 01:16:05;;;;;;;7.70;4.27;;;13.70;91.50;;;;;;5050246;28;20881;-64
2022/05/09 01:18:34;;;;;;;5.90;4.00;;;13.60;92.30;;;;;;5050084;28;20482;-62
2022/05/09 01:21:06;;;;;;;7.80;5.20;;;13.50;93.20;;;;;;5049656;28;20473;-63
2022/05/09 01:23:36;;;;;;;7.77;4.87;;;13.60;93.20;;;;;;5049601;28;20446;-64
2022/05/09 01:26:06;;;;;;;7.07;5.10;;;13.70;93.60;;;;;;5049323;28;20454;-62
2022/05/09 01:28:33;;;;;;;8.17;4.57;;;13.80;93.70;;;;;;5049234;28;20438;-64
2022/05/09 01:31:03;;;;;;;11.87;4.60;;;13.80;93.50;;;;;;5049751;28;20485;-62
2022/05/09 01:33:40;;;;;;;7.53;4.77;;;13.80;93.60;;;;;;5049649;28;20589;-62
2022/05/09 01:36:14;;;;;;;9.10;4.97;;;13.80;93.80;;;;;;5049421;28;20447;-64
2022/05/09 01:38:47;;;;;;;7.20;5.03;;;13.90;94.10;;;;;;5049565;28;20453;-63
2022/05/09 01:41:14;;;;;;;7.37;4.67;;;13.90;94.30;;;;;;5049578;28;21028;-63
2022/05/09 01:43:44;;;;;;;7.63;5.30;;;14.00;94.10;;;;;;5049537;28;20473;-63
2022/05/09 01:46:13;;;;;;;7.40;4.60;;;14.00;94.30;;;;;;5049492;28;20529;-64
2022/05/09 01:51:28;;;;;;;9.80;4.67;;;13.90;95.00;;;;;;5049271;28;20461;-64
2022/05/09 01:53:57;;;;;;;7.90;5.90;;;13.90;95.90;;;;;;5049245;28;20608;-63
2022/05/09 01:56:26;;;;;;;7.00;5.43;;;13.90;95.90;;;;;;5049390;28;20482;-63
2022/05/09 01:58:56;;;;;;;9.00;5.80;;;14.00;96.10;;;;;;5049178;28;20535;-65
2022/05/09 02:01:25;;;;;;;9.07;6.03;;;14.00;96.80;;;;;;5049139;28;20481;-62
2022/05/09 02:03:53;;;;;;;6.90;4.60;;;14.10;96.40;;;;;;5049188;28;20950;-65
2022/05/09 02:06:21;;;;;;;9.20;6.10;;;14.00;96.20;;;;;;5049187;28;20535;-65
2022/05/09 02:08:49;;;;;;;6.93;4.27;;;13.80;96.10;;;;;;5049141;28;20461;-65
2022/05/09 02:11:18;;;;;;;7.90;4.70;;;13.70;96.40;;;;;;5048948;28;20472;-61
2022/05/09 02:13:45;;;;;;;10.57;5.63;;;13.70;97.70;;;;;;5049033;28;20879;-61
2022/05/09 02:16:12;;;;;;;6.97;4.80;;;13.80;98.10;;;;;;5049215;28;20457;-64
2022/05/09 02:18:39;;;;;;;7.23;5.70;;;13.60;99.10;;;;;;5049096;28;20473;-65
2022/05/09 02:21:07;;;;;;;10.80;5.43;;;13.60;99.70;;;;;;5048661;28;20485;-61
2022/05/09 02:23:34;;;;;;;6.60;5.23;;;13.70;99.90;;;;;;5049211;28;20465;-63
2022/05/09 02:26:01;;;;;;;8.37;5.50;;;13.80;99.90;;;;;;5048670;28;20458;-62
2022/05/09 02:28:30;;;;;;;8.20;5.30;;;13.90;99.90;;;;;;5048719;28;20446;-63
2022/05/09 02:30:57;;;;;;;6.90;5.47;;;13.90;99.90;;;;;;5048800;28;20481;-64
2022/05/09 02:33:24;;;;;;;6.13;4.60;;;13.90;99.90;;;;;;5049075;28;20446;-63
2022/05/09 02:35:51;;;;;;;9.00;5.63;;;13.80;99.90;;;;;;5048923;28;20855;-62
2022/05/09 02:38:19;;;;;;;8.90;5.50;;;13.70;99.90;;;;;;5048789;28;20461;-64
2022/05/09 02:40:46;;;;;;;9.60;5.70;;;13.70;99.90;;;;;;5048822;28;20473;-62
2022/05/09 02:43:14;;;;;;;8.60;5.73;;;13.60;99.90;;;;;;5048618;28;20450;-63
2022/05/09 02:45:43;;;;;;;11.03;6.23;;;13.50;99.90;;;;;;5048934;28;20461;-62
2022/05/09 02:48:11;;;;;;;8.40;5.60;;;13.50;99.90;;;;;;5048887;28;20450;-64
2022/05/09 02:50:44;;;;;;;7.50;5.53;;;13.50;99.90;;;;;;5048570;28;20568;-62
2022/05/09 02:53:12;;;;;;;8.50;6.00;;;13.40;99.90;;;;;;5048571;28;20473;-66
2022/05/09 02:55:39;;;;;;;11.80;6.10;;;13.30;99.90;;;;;;5048524;28;20489;-63
2022/05/09 02:58:15;;;;;;;9.27;5.70;;;13.20;99.90;;;;;;5048578;28;20450;-61
2022/05/09 03:01:12;;;;;;;8.93;5.87;;;13.30;99.90;;;;;;5048111;28;20555;-63
2022/05/09 03:06:25;;;;;;;7.20;5.40;;;13.50;99.90;;;;;;5048714;28;20961;-61
2022/05/09 03:08:52;;;;;;;8.70;6.00;;;13.60;99.90;;;;;;5048825;28;20457;-64
2022/05/09 03:11:19;;;;;;;8.40;5.83;;;13.50;99.90;;;;;;5048384;28;20520;-63
2022/05/09 03:14:22;;;;;;;9.90;6.00;;;13.50;99.90;;;;;;5048337;28;20843;-63
2022/05/09 03:16:49;;;;;;;11.40;5.93;;;13.60;99.90;;;;;;5048525;28;20457;-63
2022/05/09 03:19:18;;;;;;;9.70;7.03;;;13.70;99.90;;;;;;5048634;28;20449;-64
2022/05/09 03:21:47;;;;;;;7.80;5.90;;;13.70;99.90;;;;;;5051358;28;20481;-64
2022/05/09 03:24:15;;;;;;;10.70;7.00;;;13.70;99.90;;;;;;5051640;28;20507;-62
2022/05/09 03:26:42;;;;;;;13.20;6.60;;;13.70;99.90;;;;;;5052090;28;20446;-62
2022/05/09 03:29:09;;;;;;;9.70;6.20;;;13.60;99.90;;;;;;5052201;28;20751;-61
2022/05/09 03:31:36;;;;;;;9.43;6.87;;;13.50;99.90;;;;;;5051836;28;20616;-66
2022/05/09 03:34:03;;;;;;;9.37;6.80;;;13.40;99.90;;;;;;5051873;28;20504;-69
2022/05/09 03:36:31;;;;;;;17.57;10.67;;;13.40;99.90;;;;;;5051910;28;20462;-68
2022/05/09 03:38:59;;;;;;;15.10;9.27;;;13.30;99.90;;;;;;5051568;28;20511;-69
2022/05/09 03:41:26;;;;;;;14.87;8.30;;;13.30;99.90;;;;;;5051729;28;20465;-69
2022/05/09 03:43:53;;;;;;;15.73;8.07;;;13.20;99.90;;;;;;5051811;28;20994;-68
2022/05/09 03:46:20;;;;;;;12.60;7.77;;;13.20;99.90;;;;;;5052062;28;20952;-70
2022/05/09 03:48:47;;;;;;;13.17;7.33;;;13.20;99.90;;;;;;5051245;28;20450;-70
2022/05/09 03:51:14;;;;;;;12.47;7.40;;;13.10;99.90;;;;;;5051645;28;20481;-70
2022/05/09 03:53:42;;;;;;;13.70;8.27;;;12.90;99.90;;;;;;5051092;28;20458;-71
2022/05/09 03:56:10;;;;;;;13.00;7.57;;;12.90;99.90;;;;;;5051499;28;20565;-70
2022/05/09 03:58:37;;;;;;;13.03;6.43;;;12.70;99.90;;;;;;5051448;28;20462;-69
2022/05/09 04:01:04;;;;;;;12.20;7.73;;;12.60;99.90;;;;;;5051168;28;20480;-72
2022/05/09 04:03:32;;;;;;;20.77;9.00;;;12.60;99.90;;;;;;5051175;28;20450;-70
2022/05/09 04:05:59;;;;;;;8.50;6.50;;;12.70;99.90;;;;;;5051578;28;20566;-71
2022/05/09 04:08:29;;;;;;;10.30;6.60;;;12.80;99.90;;;;;;5051144;28;20461;-71
2022/05/09 04:10:58;;;;;;;12.00;6.80;;;12.90;99.90;;;;;;5051109;28;20473;-71
2022/05/09 04:13:25;;;;;;;12.03;7.37;;;12.90;99.90;;;;;;5051573;28;20629;-72
2022/05/09 04:18:38;;;;;;;12.97;7.60;;;12.60;99.90;;;;;;5050872;28;20491;-71
2022/05/09 04:21:07;;;;;;;10.63;6.50;;;12.70;99.90;;;;;;5050885;28;20486;-71
2022/05/09 04:23:39;;;;;;;8.80;6.40;;;13.00;99.90;;;;;;5051181;28;20461;-69
2022/05/09 04:26:07;;;;;;;11.33;6.47;;;13.30;99.90;;;;;;5050573;28;20450;-71
2022/05/09 04:28:38;;;;;;;8.53;5.53;;;13.60;99.90;;;;;;5050686;28;20450;-67
2022/05/09 04:31:15;;;;;;;10.20;6.63;;;13.80;99.90;;;;;;5050424;28;20474;-67
2022/05/09 04:34:23;;;;;;;13.40;6.60;;;13.80;99.90;;;;;;5050458;28;20450;-67
2022/05/09 04:36:50;;;;;;;12.03;6.20;;;13.90;99.90;;;;;;5041197;28;20481;-68
2022/05/09 04:39:20;;;;;;;10.43;7.00;;;14.10;99.90;;;;;;5050435;28;20457;-69
2022/05/09 04:41:50;;;;;;;13.67;7.87;;;14.30;99.90;;;;;;5050496;28;20477;-67
2022/05/09 04:44:17;;;;;;;14.70;7.30;;;14.40;99.90;;;;;;5050651;28;20937;-67
2022/05/09 04:47:09;;;;;;;11.33;7.40;;;14.50;99.90;;;;;;5050736;28;20442;-68
2022/05/09 04:49:36;;;;;;;16.93;8.80;;;14.60;99.90;;;;;;5049832;28;20843;-69
2022/05/09 04:52:04;;;;;;;14.20;8.20;;;14.70;99.90;;;;;;5050454;28;20469;-68
2022/05/09 04:54:31;;;;;;;17.63;7.67;;;14.70;99.90;;;;;;5050074;28;20511;-69
2022/05/09 04:56:59;;;;;;;12.10;8.20;;;14.80;99.90;;;;;;5050550;28;20461;-67
2022/05/09 04:59:27;;;;;;;14.63;8.10;;;15.00;99.90;;;;;;5050686;28;20465;-67
2022/05/09 05:01:54;;;;;;;11.90;7.80;;;15.10;99.90;;;;;;5049986;28;20482;-67
2022/05/09 05:04:21;;;;;;;14.03;7.87;;;15.10;99.90;;;;;;5050100;28;20450;-70
2022/05/09 05:06:50;;;;;;;13.60;7.63;;;15.10;99.90;;;;;;5050506;28;20449;-68
2022/05/09 05:09:17;;;;;;;11.13;7.50;;;15.20;99.90;;;;;;5049844;28;21056;-69
2022/05/09 05:11:44;;;;;;;9.13;6.63;;;15.30;99.90;;;;;;5050001;28;20530;-69
2022/05/09 05:14:12;;;;;;;9.40;7.30;;;15.20;99.90;;;;;;5049853;28;20450;-69
2022/05/09 05:19:24;;;;;;;10.90;7.37;;;15.00;99.90;;;;;;5049957;28;20433;-66
2022/05/09 05:21:51;;;;;;;12.10;7.73;;;15.00;99.90;;;;;;5049586;28;20900;-65
2022/05/09 05:24:28;;;;;;;11.90;7.20;;;15.20;99.90;;;;;;5049546;28;20454;-64
2022/05/09 05:26:58;;;;;;;10.70;7.27;;;15.40;99.90;;;;;;5049685;28;20495;-62
2022/05/09 05:29:27;;;;;;;12.07;7.80;;;15.50;99.90;;;;;;5049221;28;20458;-62
2022/05/09 05:31:54;;;;;;;11.00;7.50;;;15.40;99.70;;;;;;5049445;28;20577;-63
2022/05/09 05:34:21;;;;;;;13.27;7.97;;;15.30;99.90;;;;;;5049430;28;20464;-62
2022/05/09 05:36:50;;;;;;;12.80;7.07;;;15.20;99.90;;;;;;5049374;28;20449;-64
2022/05/09 05:39:17;;;;;;;11.10;7.10;;;15.30;99.90;;;;;;5049290;28;20554;-65
2022/05/09 05:41:44;;;;;;;12.80;7.73;;;15.50;99.40;;;;;;5049399;28;20484;-65
2022/05/09 05:44:12;;;;;;;10.53;6.13;;;15.70;99.70;;;;;;5048511;28;20457;-65
2022/05/09 05:46:42;;;;;;;13.23;6.80;;;15.90;98.90;;;;;;5049066;28;20485;-65
2022/05/09 05:49:10;;;;;;;8.10;5.80;;;15.90;98.30;;;;;;5049461;28;20525;-65
2022/05/09 05:51:40;;;;;;;12.20;5.97;;;15.90;98.20;;;;;;5048879;28;20474;-65
2022/05/09 05:54:07;;;;;;;11.67;6.10;;;15.90;98.00;;;;;;5049182;28;20469;-65
2022/05/09 05:56:37;;;;;;;10.93;5.60;;;16.20;97.60;;;;;;5049094;28;20486;-65
2022/05/09 05:59:05;;;;;;;9.63;5.80;;;16.20;97.50;;;;;;5049201;28;20548;-65
2022/05/09 06:01:33;;;;;;;16.20;6.10;;;16.10;97.00;;;;;;5049292;28;20473;-65
2022/05/09 06:04:02;;;;;;;10.20;6.40;;;16.00;96.90;;;;;;5049476;28;20500;-65
2022/05/09 06:06:29;;;;;;;14.53;6.10;;;16.00;97.00;;;;;;5048773;28;20450;-65
2022/05/09 06:08:56;;;;;;;8.90;6.10;;;16.20;96.90;;;;;;5049088;28;20476;-65
2022/05/09 06:11:23;;;;;;;8.73;6.10;;;16.30;96.70;;;;;;5049014;28;20877;-64
2022/05/09 06:13:50;;;;;;;10.03;5.90;;;16.40;96.70;;;;;;5049021;28;20460;-65
2022/05/09 06:16:19;;;;;;;10.33;7.10;;;16.50;96.00;;;;;;5048788;28;20492;-64
2022/05/09 06:18:51;;;;;;;19.40;6.97;;;16.50;96.30;;;;;;5049206;28;20806;-66
2022/05/09 06:21:21;;;;;;;9.77;6.43;;;16.80;95.70;;;;;;5048822;28;20498;-65
2022/05/09 06:23:49;;;;;;;11.50;6.60;;;16.90;95.30;;;;;;5048669;28;20458;-66
2022/05/09 06:26:16;;;;;;;16.90;6.90;;;17.00;95.30;;;;;;5048790;28;20482;-65
2022/05/09 06:28:43;;;;;;;10.37;7.57;;;17.00;95.30;;;;;;5049051;28;20462;-65
2022/05/09 06:31:10;;;;;;;9.90;5.93;;;17.00;95.30;;;;;;5048408;28;20462;-65
2022/05/09 06:33:37;;;;;;;8.53;6.37;;;17.10;94.90;;;;;;5048924;28;20457;-66
2022/05/09 06:36:23;;;;;;;10.57;6.33;;;17.30;94.80;;;;;;5048566;28;20481;-65
2022/05/09 06:38:50;;;;;;;8.60;6.30;;;17.60;94.50;;;;;;5048448;28;20450;-71
2022/05/09 06:41:17;;;;;;;9.33;6.30;;;17.70;93.80;;;;;;5049288;28;20809;-70
2022/05/09 06:43:47;;;;;;;14.13;6.57;;;18.00;93.70;;;;;;5049045;28;20450;-72
2022/05/09 06:46:16;;;;;;;8.90;6.20;;;18.30;93.30;;;;;;5048657;28;20446;-71
2022/05/09 06:48:44;;;;;;;8.40;6.30;;;18.60;92.00;;;;;;5048752;28;20457;-71
2022/05/09 06:51:11;;;;;;;9.00;6.00;;;18.60;91.50;;;;;;5048595;28;20560;-71
2022/05/09 06:53:39;;;;;;;10.50;6.83;;;18.70;91.10;;;;;;5048615;28;20837;-71
2022/05/09 06:56:08;;;;;;;12.30;6.20;;;18.90;91.20;;;;;;5051235;28;20845;-73
2022/05/09 06:58:35;;;;;;;8.87;6.30;;;19.10;90.60;;;;;;5052601;28;20895;-66
2022/05/09 07:01:02;;;;;;;9.93;6.50;;;19.30;89.90;;;;;;5052101;28;20469;-65
2022/05/09 07:03:30;;;;;;;8.83;7.13;;;19.50;89.70;;;;;;5052341;28;20472;-68
2022/05/09 07:05:57;;;;;;;8.97;6.90;;;19.50;89.90;;;;;;5052304;28;20843;-64
2022/05/09 07:08:29;;;;;;;11.27;6.50;;;19.70;89.20;;;;;;5052216;28;20449;-68
2022/05/09 07:14:05;;;;;;;8.20;6.67;;;20.10;87.20;;;;;;5025071;28;20546;-65
2022/05/09 07:16:32;;;;;;;7.93;6.30;;;20.40;87.40;;;;;;5051618;28;20535;-67
2022/05/09 07:19:00;;;;;;;7.63;5.93;;;20.50;85.10;;;;;;5051834;28;20454;-67
2022/05/09 07:21:28;;;;;;;7.97;6.30;;;20.50;85.00;;;;;;5051451;28;20485;-67
2022/05/09 07:23:58;;;;;;;10.73;6.87;;;20.70;84.20;;;;;;5051726;28;20973;-66
2022/05/09 07:26:26;;;;;;;12.20;6.23;;;20.90;83.40;;;;;;5051861;28;20592;-67
2022/05/09 07:28:53;;;;;;;11.37;6.90;;;21.20;82.70;;;;;;5051417;28;20556;-65
2022/05/09 07:31:20;;;;;;;10.00;6.23;;;21.50;82.00;;;;;;5051606;28;20831;-65
2022/05/09 07:33:47;;;;;;;12.87;6.33;;;21.60;79.60;;;;;;5051842;28;20449;-67
2022/05/09 07:36:51;;;;;;;13.10;6.43;;;21.70;79.00;;;;;;5051732;28;20485;-67
2022/05/09 07:39:28;;;;;;;8.80;6.00;;;21.90;77.00;;;;;;5047819;28;20449;-68
2022/05/09 07:41:59;;;;;;;11.77;5.80;;;21.90;75.80;;;;;;5051370;28;20552;-64
2022/05/09 07:44:37;;;;;;;9.80;5.87;;;21.80;76.60;;;;;;5051509;28;20474;-68
2022/05/09 07:50:11;;;;;;;9.23;5.63;;;22.20;73.50;;;;;;5051188;28;20450;-67
2022/05/09 07:52:38;;;;;;;9.27;5.10;;;22.10;72.00;;;;;;5051531;28;20465;-64
2022/05/09 07:55:09;;;;;;;11.13;5.77;;;22.20;71.80;;;;;;5051581;28;20452;-67
2022/05/09 07:57:37;;;;;;;7.87;4.70;;;22.40;71.40;;;;;;5051460;28;20465;-67
2022/05/09 08:00:06;;;;;;;5.43;4.00;;;22.70;68.90;;;;;;5051242;28;20935;-65
2022/05/09 08:02:35;;;;;;;7.97;4.53;;;22.90;67.40;;;;;;5051317;28;21030;-64
2022/05/09 08:05:02;;;;;;;7.97;4.90;;;23.10;67.60;;;;;;5051359;28;20978;-66
2022/05/09 08:07:29;;;;;;;11.27;7.00;;;23.30;67.90;;;;;;5050643;28;20449;-65
2022/05/09 08:09:56;;;;;;;10.83;5.30;;;23.60;67.20;;;;;;5051214;28;20531;-68
2022/05/09 08:12:26;;;;;;;8.30;4.40;;;23.70;67.50;;;;;;5050689;28;20925;-65
2022/05/09 08:14:54;;;;;;;9.20;4.37;;;23.80;66.90;;;;;;5050745;28;20958;-66
2022/05/09 08:17:21;;;;;;;9.77;4.83;;;23.80;65.30;;;;;;5051280;28;20849;-65
2022/05/09 08:19:55;;;;;;;7.27;4.53;;;23.80;62.80;;;;;;5051158;28;20454;-65
2022/05/09 08:22:24;;;;;;;6.90;3.80;;;23.80;61.20;;;;;;5050348;28;20489;-66
2022/05/09 08:24:51;;;;;;;7.50;4.03;;;23.80;62.20;;;;;;5038776;28;20477;-65
2022/05/09 08:27:19;;;;;;;5.60;3.10;;;24.00;63.00;;;;;;5050876;28;20446;-67
2022/05/09 08:29:47;;;;;;;5.37;3.13;;;24.10;59.90;;;;;;5050422;28;20939;-68
2022/05/09 08:32:15;;;;;;;6.43;3.20;;;24.20;59.40;;;;;;5050940;28;20484;-65
2022/05/09 08:34:42;;;;;;;9.60;2.80;;;24.30;58.90;;;;;;5050892;28;20469;-65
2022/05/09 08:37:10;;;;;;;10.73;3.10;;;24.30;58.60;;;;;;5050569;28;20486;-66
2022/05/09 08:39:37;;;;;;;10.13;3.40;;;24.20;57.40;;;;;;5050538;28;20590;-65
2022/05/09 08:42:07;;;;;;;7.00;2.93;;;24.40;57.40;;;;;;5050526;28;20474;-67
2022/05/09 08:52:18;;;;;;;6.47;3.00;;;25.10;55.20;;;;;;4987798;28;21045;-67
2022/05/09 08:54:46;;;;;;;5.40;3.10;;;25.30;55.30;;;;;;4988228;28;20452;-65
2022/05/09 08:57:17;;;;;;;6.27;3.57;;;25.50;54.70;;;;;;4988031;28;20499;-67
2022/05/09 08:59:49;;;;;;;8.47;3.53;;;25.50;55.00;;;;;;4987768;28;20467;-65
2022/05/09 09:02:30;;;;;;;6.30;2.80;;;25.50;54.60;;;;;;4987961;28;20476;-65
2022/05/09 09:05:03;;;;;;;6.60;2.83;;;25.60;53.40;;;;;;5047788;28;20454;-65
2022/05/09 09:07:59;;;;;;;7.53;2.93;;;25.30;52.30;;;;;;5049679;28;20450;-68
2022/05/09 09:13:54;;;;;;;12.07;4.10;;;25.60;53.70;;;;;;5047873;28;21016;-68
2022/05/09 09:16:35;;;;;;;6.63;3.47;;;25.70;52.60;;;;;;5049967;28;20485;-65
2022/05/09 09:19:48;;;;;;;7.40;3.70;;;25.70;52.60;;;;;;5049023;28;20457;-64
2022/05/09 09:25:13;;;;;;;8.97;3.37;;;25.80;51.70;;;;;;1426848;26;20848;-66
2022/05/09 09:27:45;;;;;;;6.23;2.97;;;25.90;50.60;;;;;;5010139;28;20448;-68
2022/05/09 09:30:14;;;;;;;4.70;2.10;;;25.80;47.00;;;;;;5010152;28;20452;-65
2022/05/09 09:32:44;;;;;;;9.00;2.63;;;25.80;46.00;;;;;;5010185;28;20537;-65
2022/05/09 09:35:22;;;;;;;8.23;3.00;;;25.90;48.00;;;;;;5010145;28;20481;-66
2022/05/09 09:37:56;;;;;;;5.93;2.70;;;25.90;44.90;;;;;;5009653;28;21007;-69
2022/05/09 09:40:26;;;;;;;6.27;2.30;;;25.90;45.00;;;;;;5009987;28;20482;-66
2022/05/09 09:42:54;;;;;;;6.93;2.30;;;26.00;41.30;;;;;;5009702;28;20949;-66
2022/05/09 09:45:30;;;;;;;5.20;2.70;;;26.20;41.70;;;;;;5009763;28;20455;-66
2022/05/09 09:48:15;;;;;;;5.23;2.60;;;26.40;43.00;;;;;;5010254;28;20451;-66
2022/05/09 09:50:55;;;;;;;7.20;2.80;;;26.50;40.00;;;;;;5009587;28;20605;-67
2022/05/09 09:53:38;;;;;;;4.63;2.60;;;26.60;39.90;;;;;;5009872;28;20467;-65
2022/05/09 09:59:21;;;;;;;7.10;2.43;;;26.30;41.50;;;;;;5002580;28;20669;-65
2022/05/09 10:02:03;;;;;;;4.40;2.27;;;26.40;43.10;;;;;;5009644;28;20956;-67
2022/05/09 10:04:31;;;;;;;4.77;2.43;;;26.50;41.20;;;;;;5009121;28;20439;-65
2022/05/09 10:07:01;;;;;;;5.10;2.60;;;26.70;41.60;;;;;;5009456;28;20466;-66
2022/05/09 10:09:49;;;;;;;7.70;2.13;;;26.70;42.20;;;;;;5009346;28;20447;-68
2022/05/09 10:15:29;;;;;;;5.20;2.10;;;26.30;39.90;;;;;;5005689;28;20455;-68
2022/05/09 10:17:57;;;;;;;5.77;1.83;;;26.10;41.30;;;;;;5009560;28;20495;-67
2022/05/09 10:20:29;;;;;;;5.07;2.17;;;26.30;40.10;;;;;;5009250;28;20514;-68
2022/05/09 10:26:00;;;;;;;5.90;2.43;;;26.90;39.60;;;;;;5024445;28;20492;-66
2022/05/09 10:28:44;;;;;;;4.60;2.30;;;27.20;39.70;;;;;;5029016;28;20474;-66
2022/05/09 10:31:21;;;;;;;5.00;2.40;;;27.40;39.20;;;;;;5033073;28;20471;-69
2022/05/09 10:33:56;;;;;;;6.07;2.80;;;27.40;37.80;;;;;;5033282;28;20458;-65
2022/05/09 10:36:27;;;;;;;4.60;2.00;;;27.20;37.20;;;;;;5032794;28;20486;-67
2022/05/09 10:39:04;;;;;;;5.87;2.70;;;27.10;37.70;;;;;;5032995;28;20466;-66
2022/05/09 10:41:51;;;;;;;4.63;2.13;;;27.40;37.60;;;;;;5032897;28;20476;-64
2022/05/09 10:44:28;;;;;;;6.53;2.23;;;27.50;37.90;;;;;;5032230;28;20459;-66
2022/05/09 10:47:19;;;;;;;8.03;2.17;;;27.60;37.40;;;;;;5032072;28;20572;-66
2022/05/09 10:49:50;;;;;;;5.27;2.50;;;27.90;38.10;;;;;;5032709;28;20611;-66
2022/05/09 10:52:34;;;;;;;8.07;2.53;;;28.30;37.70;;;;;;5032547;28;20526;-69
2022/05/09 10:55:05;;;;;;;5.60;2.33;;;28.40;36.60;;;;;;5032425;28;20987;-67
2022/05/09 10:57:37;;;;;;;5.53;2.63;;;28.20;34.00;;;;;;5032260;28;20507;-67
2022/05/09 11:00:11;;;;;;;6.73;2.07;;;27.90;36.10;;;;;;5032553;28;20455;-65
2022/05/09 11:02:40;;;;;;;4.53;2.03;;;28.10;35.00;;;;;;5032312;28;20482;-72
2022/05/09 11:05:08;;;;;;;4.60;2.10;;;28.40;33.50;;;;;;5032125;28;20457;-70
2022/05/09 11:07:43;;;;;;;5.23;1.70;;;28.70;32.60;;;;;;5032275;28;20509;-68
2022/05/09 11:10:28;;;;;;;4.13;1.73;;;28.80;33.50;;;;;;5032540;28;20550;-70
2022/05/09 11:13:17;;;;;;;4.60;2.00;;;28.90;32.80;;;;;;5031955;28;20810;-69
2022/05/09 11:19:41;;;;;;;4.33;1.97;;;29.00;32.90;;;;;;5007599;28;20454;-71
2022/05/09 11:22:19;;;;;;;4.30;2.13;;;29.10;32.60;;;;;;5031908;28;20471;-70
2022/05/09 11:25:10;;;;;;;4.63;2.10;;;28.80;33.10;;;;;;5031320;28;20528;-70
2022/05/09 11:28:22;;;;;;;4.60;2.00;;;29.00;34.10;;;;;;5032016;28;20824;-70
2022/05/09 11:30:58;;;;;;;5.17;2.53;;;29.00;34.30;;;;;;4997988;28;20480;-70
2022/05/09 11:33:42;;;;;;;5.90;1.80;;;29.20;34.20;;;;;;4993184;28;20793;-69
2022/05/09 11:36:33;;;;;;;5.43;2.30;;;29.40;33.50;;;;;;4992584;28;20961;-70
2022/05/09 11:39:07;;;;;;;4.40;1.77;;;29.50;31.60;;;;;;4992434;28;20499;-69
2022/05/09 11:41:42;;;;;;;3.90;1.90;;;29.80;30.60;;;;;;4991261;28;20997;-70
2022/05/09 11:44:18;;;;;;;4.20;1.70;;;29.80;30.70;;;;;;4992179;28;20462;-69
2022/05/09 11:47:20;;;;;;;5.30;1.80;;;29.90;29.90;;;;;;4992272;28;20471;-71
2022/05/09 11:50:10;;;;;;;4.87;1.57;;;30.20;28.70;;;;;;5011324;28;20944;-70
2022/05/09 11:52:42;;;;;;;6.20;2.43;;;30.00;29.00;;;;;;5011619;28;20471;-70
2022/05/09 11:55:13;;;;;;;5.50;2.23;;;29.90;29.20;;;;;;5011603;28;20447;-72
2022/05/09 11:57:42;;;;;;;6.83;2.00;;;29.90;28.00;;;;;;5011406;28;21000;-72
2022/05/09 12:00:13;;;;;;;7.00;2.07;;;29.90;29.00;;;;;;5011284;28;20459;-70
2022/05/09 12:02:50;;;;;;;4.33;1.70;;;30.10;29.10;;;;;;5011591;28;20476;-71
2022/05/09 12:06:03;;;;;;;4.90;2.07;;;30.30;28.20;;;;;;5011224;28;20459;-69
2022/05/09 12:08:42;;;;;;;4.70;1.83;;;30.50;27.30;;;;;;5011574;28;20452;-69
2022/05/09 12:11:32;;;;;;;5.43;1.63;;;30.60;27.70;;;;;;5011695;28;20530;-69
2022/05/09 12:14:01;;;;;;;8.10;2.00;;;30.70;28.30;;;;;;5011149;28;20976;-70
2022/05/09 12:16:56;;;;;;;4.43;1.60;;;30.80;28.10;;;;;;5011074;28;20518;-69
2022/05/09 12:19:49;;;;;;;4.90;1.63;;;30.80;28.10;;;;;;5010711;28;21007;-69
2022/05/09 12:22:49;;;;;;;4.90;1.50;;;30.90;28.50;;;;;;5011215;28;20886;-69
2022/05/09 12:26:00;;;;;;;5.13;1.70;;;31.00;27.90;;;;;;5022489;28;20613;-69
2022/05/09 12:28:32;;;;;;;5.20;2.03;;;31.10;27.80;;;;;;5030988;28;20455;-70
2022/05/09 12:31:00;;;;;;;4.03;1.60;;;31.30;27.90;;;;;;5029182;28;20471;-70
2022/05/09 12:33:36;;;;;;;3.83;1.47;;;31.20;28.10;;;;;;5030042;28;20447;-70
2022/05/09 12:36:51;;;;;;;6.83;1.83;;;31.00;27.80;;;;;;5029670;28;20452;-70
2022/05/09 12:39:28;;;;;;;4.77;1.70;;;31.10;28.20;;;;;;5030300;28;20545;-69
2022/05/09 12:42:20;;;;;;;3.80;1.43;;;31.10;28.90;;;;;;5045636;22;21015;-69
2022/05/09 12:44:49;;;;;;;6.07;1.40;;;31.00;28.10;;;;;;5030549;28;20455;-68
2022/05/09 12:47:23;;;;;;;4.80;1.87;;;31.20;28.50;;;;;;5030782;28;20450;-70
2022/05/09 12:49:59;;;;;;;5.37;1.40;;;31.20;28.40;;;;;;5030240;28;20455;-70
2022/05/09 12:52:30;;;;;;;3.33;1.20;;;31.20;28.30;;;;;;5029736;28;20481;-68
2022/05/09 12:57:45;;;;;;;3.80;1.33;;;31.10;28.80;;;;;;5029146;28;20943;-67
2022/05/09 13:00:15;;;;;;;4.53;1.50;;;31.30;28.30;;;;;;5029507;28;20455;-68
2022/05/09 13:02:43;;;;;;;4.07;1.20;;;31.40;28.60;;;;;;5029246;28;20550;-67
2022/05/09 13:05:13;;;;;;;7.03;1.60;;;31.50;28.30;;;;;;5029460;28;20772;-68
2022/05/09 13:07:55;;;;;;;4.60;1.90;;;31.50;28.20;;;;;;5029362;28;20482;-67
2022/05/09 13:10:23;;;;;;;6.87;1.80;;;31.60;27.60;;;;;;5028752;28;20451;-69
2022/05/09 13:12:56;;;;;;;5.10;1.67;;;31.60;27.50;;;;;;5029178;28;20545;-68
2022/05/09 13:15:24;;;;;;;5.93;1.73;;;31.60;27.50;;;;;;5029358;28;20446;-68
2022/05/09 13:17:58;;;;;;;7.07;1.47;;;31.60;27.40;;;;;;5029321;28;20502;-67
2022/05/09 13:20:27;;;;;;;4.77;1.63;;;31.60;27.30;;;;;;5029002;28;20505;-70
2022/05/09 13:22:58;;;;;;;7.03;1.60;;;31.30;27.40;;;;;;5028516;28;20454;-70
2022/05/09 13:25:32;;;;;;;6.30;2.80;;;31.00;27.30;;;;;;5029126;28;20450;-63
2022/05/09 13:28:02;;;;;;;4.80;1.67;;;31.20;28.00;;;;;;5037937;28;20874;-66
2022/05/09 13:30:34;;;;;;;4.40;1.50;;;31.40;28.10;;;;;;5031265;28;20542;-66
2022/05/09 13:33:03;;;;;;;3.80;1.60;;;31.70;27.90;;;;;;5030589;28;20589;-66
2022/05/09 13:35:33;;;;;;;5.33;1.30;;;31.80;28.10;;;;;;5039364;28;20512;-66
2022/05/09 13:38:17;;;;;;;5.70;2.17;;;32.10;27.60;;;;;;5049302;28;20486;-65
2022/05/09 13:40:46;;;;;;;5.53;2.10;;;32.30;27.60;;;;;;5034589;28;20563;-67
2022/05/09 13:43:17;;;;;;;7.17;2.53;;;32.50;28.40;;;;;;5029220;28;20453;-64
2022/05/09 13:45:45;;;;;;;5.30;1.80;;;32.80;28.10;;;;;;5029140;28;20454;-66
2022/05/09 13:48:20;;;;;;;4.93;2.30;;;32.90;28.20;;;;;;5028857;28;20449;-67
2022/05/09 13:50:52;;;;;;;4.20;1.70;;;32.90;28.70;;;;;;5030962;28;20474;-65
2022/05/09 13:53:24;;;;;;;4.37;1.47;;;33.10;28.40;;;;;;5049033;28;20516;-67
2022/05/09 13:55:53;;;;;;;4.00;1.63;;;33.20;28.70;;;;;;5049234;28;20454;-65
2022/05/09 13:58:24;;;;;;;4.97;1.80;;;33.60;28.40;;;;;;5049052;28;20513;-66